Time;durP1;ratioP1;P1;durP2;ratioP2;P2;SDS_P1;SDS_P2;PMS_P1;PMS_P2;Temp;Humidity;BMP_temperature;BMP_pressure;BME280_temperature;BME280_humidity;BME280_pressure;Samples;Min_cycle;Max_cycle;Signal;HPM_P1;HPM_P2
2022/04/10 00:00:00;;;;;;;3.42;1.00;;;4.90;95.50;;;;;;5070451;28;20032;-81
2022/04/10 00:02:25;;;;;;;1.67;1.08;;;4.90;95.60;;;;;;5051304;28;20029;-80
2022/04/10 00:04:51;;;;;;;1.10;1.00;;;4.90;95.60;;;;;;5069063;28;20440;-81
2022/04/10 00:07:16;;;;;;;2.22;1.20;;;4.90;95.60;;;;;;5069467;28;20070;-82
2022/04/10 00:09:42;;;;;;;0.98;0.82;;;4.90;95.60;;;;;;5069967;28;20044;-81
2022/04/10 00:12:07;;;;;;;1.30;1.00;;;4.90;95.50;;;;;;5051823;28;20055;-82
2022/04/10 00:14:33;;;;;;;2.88;0.90;;;4.90;95.50;;;;;;5069645;28;20033;-80
2022/04/10 00:16:59;;;;;;;2.38;0.82;;;4.90;95.50;;;;;;5069481;28;20368;-81
2022/04/10 00:19:24;;;;;;;1.98;1.10;;;4.90;95.60;;;;;;5051787;28;20479;-81
2022/04/10 00:21:50;;;;;;;2.17;0.93;;;4.80;95.60;;;;;;5051657;28;20043;-81
2022/04/10 00:24:15;;;;;;;1.13;1.02;;;4.80;95.70;;;;;;5051854;28;20055;-80
2022/04/10 00:26:41;;;;;;;4.07;1.10;;;4.80;95.60;;;;;;5069189;28;20143;-80
2022/04/10 00:29:06;;;;;;;3.28;1.40;;;4.80;95.70;;;;;;5069836;28;20101;-80
2022/04/10 00:31:32;;;;;;;2.35;0.80;;;4.70;95.80;;;;;;5051200;28;20388;-80
2022/04/10 00:33:57;;;;;;;2.78;1.27;;;4.70;95.80;;;;;;5051938;28;20028;-80
2022/04/10 00:36:23;;;;;;;1.70;0.95;;;4.80;95.80;;;;;;5072541;28;20028;-80
2022/04/10 00:38:48;;;;;;;5.00;1.35;;;4.70;96.10;;;;;;5073841;28;20027;-80
2022/04/10 00:41:14;;;;;;;1.48;1.02;;;4.70;95.80;;;;;;5073140;28;20024;-81
2022/04/10 00:44:09;;;;;;;3.05;1.65;;;4.70;95.90;;;;;;5073865;28;20423;-81
2022/04/10 00:46:35;;;;;;;4.60;1.02;;;4.70;95.90;;;;;;5072677;28;20017;-79
2022/04/10 00:49:01;;;;;;;2.72;0.98;;;4.60;96.10;;;;;;5073521;28;20114;-81
2022/04/10 00:51:40;;;;;;;1.33;0.82;;;4.60;96.20;;;;;;5055189;28;20024;-81
2022/04/10 00:54:11;;;;;;;3.20;1.00;;;4.60;96.20;;;;;;5055603;28;20099;-81
2022/04/10 00:56:37;;;;;;;3.08;0.82;;;4.60;96.40;;;;;;5072639;28;20017;-81
2022/04/10 00:59:03;;;;;;;3.42;1.15;;;4.60;96.40;;;;;;5073592;28;20031;-81
2022/04/10 01:01:29;;;;;;;1.95;1.30;;;4.50;96.40;;;;;;5054455;28;20071;-80
2022/04/10 01:03:54;;;;;;;3.53;1.30;;;4.50;96.50;;;;;;5073468;28;20057;-81
2022/04/10 01:06:21;;;;;;;6.65;1.02;;;4.50;96.50;;;;;;5054476;28;20102;-80
2022/04/10 01:08:47;;;;;;;2.33;1.38;;;4.50;96.50;;;;;;5055299;28;20082;-79
2022/04/10 01:11:14;;;;;;;3.58;1.85;;;4.50;96.50;;;;;;5073224;28;20032;-80
2022/04/10 01:13:39;;;;;;;1.50;1.23;;;4.50;96.50;;;;;;5073093;28;20032;-80
2022/04/10 01:16:05;;;;;;;3.35;1.42;;;4.50;96.40;;;;;;5072844;28;20439;-80
2022/04/10 01:18:31;;;;;;;2.28;1.05;;;4.50;96.40;;;;;;5073515;28;20020;-81
2022/04/10 01:21:01;;;;;;;5.93;1.73;;;4.40;96.60;;;;;;5072158;28;20380;-80
2022/04/10 01:23:26;;;;;;;2.05;1.10;;;4.40;96.70;;;;;;5072873;28;20032;-80
2022/04/10 01:25:52;;;;;;;5.32;1.95;;;4.30;96.70;;;;;;5072322;28;20028;-80
2022/04/10 01:28:17;;;;;;;2.15;1.23;;;4.30;96.80;;;;;;5055042;28;20017;-80
2022/04/10 01:30:43;;;;;;;4.13;1.40;;;4.30;96.80;;;;;;5072371;28;20033;-80
2022/04/10 01:33:09;;;;;;;8.38;1.73;;;4.30;96.90;;;;;;5072799;28;20449;-79
2022/04/10 01:35:36;;;;;;;3.50;1.92;;;4.30;96.80;;;;;;5071767;28;20439;-81
2022/04/10 01:38:03;;;;;;;7.15;1.27;;;4.30;96.90;;;;;;5072811;28;20024;-80
2022/04/10 01:40:29;;;;;;;2.70;1.45;;;4.20;96.90;;;;;;5053970;28;20025;-81
2022/04/10 01:42:54;;;;;;;3.88;1.42;;;4.30;96.80;;;;;;5071994;28;20036;-80
2022/04/10 01:45:19;;;;;;;5.60;1.48;;;4.30;96.80;;;;;;5071182;28;20041;-80
2022/04/10 01:47:49;;;;;;;8.05;1.70;;;4.30;96.70;;;;;;5072578;28;20105;-80
2022/04/10 01:50:14;;;;;;;4.15;1.67;;;4.30;96.60;;;;;;5072684;28;20016;-80
2022/04/10 01:52:40;;;;;;;4.90;2.53;;;4.40;96.80;;;;;;5072547;28;20036;-80
2022/04/10 01:55:06;;;;;;;5.00;2.47;;;4.40;96.50;;;;;;5072240;28;20067;-81
2022/04/10 01:57:32;;;;;;;6.97;2.40;;;4.40;96.50;;;;;;5070295;28;20020;-81
2022/04/10 01:59:57;;;;;;;3.28;1.95;;;4.40;96.50;;;;;;5072199;28;20337;-80
2022/04/10 02:02:22;;;;;;;3.45;2.15;;;4.40;96.50;;;;;;5053350;28;20040;-81
2022/04/10 02:04:48;;;;;;;2.88;2.20;;;4.40;96.60;;;;;;5071688;28;20036;-80
2022/04/10 02:07:13;;;;;;;6.05;2.15;;;4.40;96.60;;;;;;5052219;28;20139;-80
2022/04/10 02:09:39;;;;;;;6.03;1.80;;;4.40;96.60;;;;;;5053896;28;20036;-81
2022/04/10 02:12:05;;;;;;;8.35;2.95;;;4.40;96.70;;;;;;5071677;28;20465;-80
2022/04/10 02:14:30;;;;;;;5.10;1.83;;;4.40;96.60;;;;;;5071232;28;20024;-80
2022/04/10 02:16:56;;;;;;;5.90;2.00;;;4.30;96.60;;;;;;5053166;28;20103;-80
2022/04/10 02:19:21;;;;;;;4.88;2.22;;;4.30;96.60;;;;;;5071501;28;20023;-80
2022/04/10 02:21:47;;;;;;;3.13;1.45;;;4.30;96.70;;;;;;5053379;28;20342;-81
2022/04/10 02:24:13;;;;;;;4.25;1.70;;;4.20;96.70;;;;;;5071861;28;20060;-79
2022/04/10 02:26:39;;;;;;;3.50;1.63;;;4.30;96.70;;;;;;5053055;28;20035;-79
2022/04/10 02:29:04;;;;;;;2.88;1.40;;;4.30;96.80;;;;;;5072001;28;20028;-80
2022/04/10 02:31:30;;;;;;;3.88;1.75;;;4.30;96.70;;;;;;5053287;28;20093;-81
2022/04/10 02:33:55;;;;;;;5.93;1.90;;;4.30;96.60;;;;;;5071245;28;20449;-80
2022/04/10 02:36:22;;;;;;;3.42;1.48;;;4.30;96.60;;;;;;5070847;28;20017;-80
2022/04/10 02:38:48;;;;;;;7.45;2.15;;;4.30;96.50;;;;;;5071897;28;20016;-82
2022/04/10 02:41:13;;;;;;;5.95;1.70;;;4.30;96.60;;;;;;5053326;28;20036;-81
2022/04/10 02:43:40;;;;;;;3.38;1.20;;;4.20;96.70;;;;;;5053220;28;20024;-80
2022/04/10 02:46:06;;;;;;;2.92;1.70;;;4.20;96.80;;;;;;5070657;28;20487;-82
2022/04/10 02:48:32;;;;;;;3.17;1.65;;;4.20;96.80;;;;;;5052845;28;20028;-81
2022/04/10 02:50:58;;;;;;;3.83;2.22;;;4.20;96.90;;;;;;5070216;28;20028;-80
2022/04/10 02:53:23;;;;;;;5.57;2.03;;;4.10;96.90;;;;;;5070943;28;20081;-80
2022/04/10 02:55:48;;;;;;;4.60;1.60;;;4.10;97.20;;;;;;5070717;28;20128;-80
2022/04/10 02:58:14;;;;;;;6.25;2.00;;;4.20;96.90;;;;;;5070498;28;20020;-80
2022/04/10 03:00:39;;;;;;;2.75;1.45;;;4.10;96.80;;;;;;5070818;28;20087;-81
2022/04/10 03:03:05;;;;;;;5.20;1.63;;;4.20;96.80;;;;;;5070500;28;20047;-80
2022/04/10 03:05:30;;;;;;;1.83;1.60;;;4.10;96.80;;;;;;5070014;28;20029;-80
2022/04/10 03:07:56;;;;;;;6.93;1.73;;;4.10;96.90;;;;;;5052496;28;20020;-81
2022/04/10 03:10:22;;;;;;;5.28;2.10;;;4.20;96.90;;;;;;5070273;28;20111;-80
2022/04/10 03:12:47;;;;;;;3.72;1.98;;;4.20;96.80;;;;;;5052552;28;20059;-82
2022/04/10 03:15:13;;;;;;;4.38;2.00;;;4.20;96.70;;;;;;5070464;28;20877;-81
2022/04/10 03:17:38;;;;;;;6.20;1.85;;;4.20;96.60;;;;;;5052399;28;20027;-80
2022/04/10 03:20:04;;;;;;;6.25;2.38;;;4.30;96.70;;;;;;5070809;28;20101;-80
2022/04/10 03:22:30;;;;;;;4.90;1.73;;;4.30;96.60;;;;;;5070265;28;20126;-80
2022/04/10 03:24:55;;;;;;;2.42;1.60;;;4.30;96.60;;;;;;5070248;28;20462;-80
2022/04/10 03:27:21;;;;;;;3.33;1.80;;;4.30;96.60;;;;;;5069746;28;20055;-81
2022/04/10 03:29:46;;;;;;;4.97;1.75;;;4.30;96.60;;;;;;5070386;28;20074;-81
2022/04/10 03:32:12;;;;;;;4.15;1.50;;;4.30;96.70;;;;;;5070242;28;20388;-82
2022/04/10 03:34:37;;;;;;;5.40;1.60;;;4.30;96.70;;;;;;5070440;28;20055;-80
2022/04/10 03:37:03;;;;;;;8.40;2.08;;;4.40;96.40;;;;;;5069761;28;20294;-82
2022/04/10 03:39:28;;;;;;;5.43;1.77;;;4.40;96.70;;;;;;5070649;28;20101;-80
2022/04/10 03:41:54;;;;;;;12.40;2.08;;;4.40;96.40;;;;;;5070282;28;20039;-80
2022/04/10 03:44:19;;;;;;;7.38;2.08;;;4.40;96.50;;;;;;5052024;28;20051;-81
2022/04/10 03:46:45;;;;;;;4.70;1.67;;;4.40;96.60;;;;;;5069134;28;20449;-80
2022/04/10 03:49:10;;;;;;;5.25;1.90;;;4.40;96.80;;;;;;5052381;28;20024;-80
2022/04/10 03:51:36;;;;;;;2.78;1.63;;;4.40;96.40;;;;;;5051435;28;20021;-80
2022/04/10 03:54:01;;;;;;;4.75;2.08;;;4.50;96.50;;;;;;5052333;28;20031;-80
2022/04/10 03:56:27;;;;;;;4.47;1.65;;;4.60;96.40;;;;;;5069422;28;20065;-81
2022/04/10 03:58:52;;;;;;;7.55;1.85;;;4.60;96.30;;;;;;5052216;28;20029;-80
2022/04/10 04:01:18;;;;;;;1.80;1.48;;;4.70;96.30;;;;;;5069388;28;20028;-80
2022/04/10 04:03:43;;;;;;;6.53;2.05;;;4.70;96.20;;;;;;5070161;28;20025;-80
2022/04/10 04:06:09;;;;;;;12.57;2.95;;;4.70;96.10;;;;;;5069351;28;20021;-80
2022/04/10 04:08:34;;;;;;;5.95;2.00;;;4.70;96.10;;;;;;5051784;28;20021;-80
2022/04/10 04:11:00;;;;;;;3.95;1.50;;;4.60;96.10;;;;;;5055343;28;20024;-79
2022/04/10 04:13:26;;;;;;;4.70;1.60;;;4.60;96.10;;;;;;5055911;28;20392;-80
2022/04/10 04:15:52;;;;;;;4.22;1.70;;;4.60;96.30;;;;;;5055276;28;20020;-81
2022/04/10 04:18:17;;;;;;;6.97;1.83;;;4.50;96.40;;;;;;5073815;28;20103;-80
2022/04/10 04:20:43;;;;;;;7.03;2.47;;;4.50;96.40;;;;;;5055075;28;20025;-80
2022/04/10 04:23:08;;;;;;;7.13;2.40;;;4.50;96.30;;;;;;5056042;28;20036;-81
2022/04/10 04:25:34;;;;;;;9.32;2.40;;;4.60;96.30;;;;;;5072982;28;20099;-80
2022/04/10 04:27:59;;;;;;;8.00;1.67;;;4.50;96.30;;;;;;5055707;28;20028;-81
2022/04/10 04:30:25;;;;;;;7.05;1.98;;;4.50;96.30;;;;;;5073598;28;20039;-81
2022/04/10 04:32:51;;;;;;;3.47;1.95;;;4.40;96.50;;;;;;5073493;28;20020;-81
2022/04/10 04:35:16;;;;;;;3.92;1.63;;;4.40;96.50;;;;;;5072329;28;20024;-81
2022/04/10 04:37:42;;;;;;;7.05;1.98;;;4.40;96.50;;;;;;5073736;28;20107;-80
2022/04/10 04:40:09;;;;;;;4.28;1.73;;;4.40;96.80;;;;;;5073185;28;20025;-81
2022/04/10 04:42:35;;;;;;;5.22;1.42;;;4.40;96.60;;;;;;5072953;28;20029;-80
2022/04/10 04:45:00;;;;;;;3.90;1.88;;;4.30;96.70;;;;;;5073370;28;20036;-79
2022/04/10 04:47:26;;;;;;;7.32;2.28;;;4.40;96.70;;;;;;5072545;28;20017;-80
2022/04/10 04:49:51;;;;;;;6.93;1.92;;;4.40;96.70;;;;;;5055337;28;20108;-81
2022/04/10 04:52:18;;;;;;;5.05;1.67;;;4.40;96.60;;;;;;5073428;28;20464;-81
2022/04/10 04:54:44;;;;;;;6.93;1.33;;;4.40;96.60;;;;;;5073135;28;20082;-80
2022/04/10 04:57:09;;;;;;;4.38;1.55;;;4.50;96.60;;;;;;5072254;28;20037;-80
2022/04/10 04:59:35;;;;;;;7.15;2.05;;;4.50;96.50;;;;;;5072914;28;20037;-80
2022/04/10 05:02:00;;;;;;;6.82;1.77;;;4.50;96.70;;;;;;5054585;28;20120;-82
2022/04/10 05:04:26;;;;;;;8.52;2.03;;;4.50;96.60;;;;;;5073053;28;20635;-83
2022/04/10 05:06:51;;;;;;;3.40;1.90;;;4.50;96.60;;;;;;5071535;28;20059;-81
2022/04/10 05:09:17;;;;;;;5.30;1.48;;;4.60;96.50;;;;;;5055150;28;20480;-82
2022/04/10 05:11:42;;;;;;;5.85;2.20;;;4.60;96.50;;;;;;5054578;28;20185;-81
2022/04/10 05:14:08;;;;;;;2.95;1.50;;;4.60;96.50;;;;;;5055033;28;20095;-82
2022/04/10 05:16:33;;;;;;;7.75;1.60;;;4.60;96.50;;;;;;5071856;28;20029;-83
2022/04/10 05:18:59;;;;;;;4.15;1.63;;;4.60;96.40;;;;;;5072876;28;20020;-82
2022/04/10 05:21:24;;;;;;;4.93;2.13;;;4.60;96.40;;;;;;5072627;28;20044;-79
2022/04/10 05:23:49;;;;;;;6.70;1.95;;;4.70;96.30;;;;;;5054910;28;20078;-82
2022/04/10 05:26:15;;;;;;;7.63;2.10;;;4.70;96.20;;;;;;5072463;28;20028;-81
2022/04/10 05:28:41;;;;;;;5.68;1.92;;;4.70;96.60;;;;;;5072759;28;20028;-80
2022/04/10 05:31:06;;;;;;;7.15;2.40;;;4.70;96.40;;;;;;5072303;28;20073;-79
2022/04/10 05:33:35;;;;;;;8.88;3.45;;;4.70;96.40;;;;;;5053996;28;20355;-82
2022/04/10 05:36:01;;;;;;;7.72;3.10;;;4.70;96.50;;;;;;5072026;28;20036;-82
2022/04/10 05:38:26;;;;;;;7.68;2.45;;;4.80;96.30;;;;;;5054449;28;20027;-79
2022/04/10 05:40:52;;;;;;;6.20;2.80;;;4.80;96.30;;;;;;5072034;28;20048;-82
2022/04/10 05:43:20;;;;;;;6.55;2.38;;;4.80;96.20;;;;;;5072448;28;20346;-82
2022/04/10 05:45:45;;;;;;;4.70;2.60;;;4.90;96.10;;;;;;5071254;28;20024;-82
2022/04/10 05:48:11;;;;;;;5.22;2.42;;;4.90;96.20;;;;;;5072069;28;20025;-82
2022/04/10 05:50:36;;;;;;;3.58;1.90;;;5.00;96.20;;;;;;5072196;28;20021;-81
2022/04/10 05:53:02;;;;;;;8.60;2.25;;;5.10;95.90;;;;;;5072010;28;20052;-79
2022/04/10 05:55:29;;;;;;;10.50;2.33;;;5.10;95.70;;;;;;5053324;28;20089;-82
2022/04/10 05:57:54;;;;;;;4.90;2.53;;;5.20;95.70;;;;;;5072145;28;20024;-81
2022/04/10 06:00:21;;;;;;;6.10;2.05;;;5.30;95.60;;;;;;5071801;28;20097;-79
2022/04/10 06:02:46;;;;;;;6.88;2.03;;;5.30;95.50;;;;;;5053671;28;20079;-81
2022/04/10 06:05:12;;;;;;;8.30;2.33;;;5.40;95.40;;;;;;5071777;28;20060;-81
2022/04/10 06:07:38;;;;;;;3.28;2.22;;;5.40;95.30;;;;;;5071480;28;20450;-81
2022/04/10 06:10:04;;;;;;;10.68;2.80;;;5.50;95.20;;;;;;5072573;28;20032;-80
2022/04/10 06:12:30;;;;;;;8.18;2.20;;;5.60;95.10;;;;;;5071728;28;20028;-80
2022/04/10 06:14:56;;;;;;;2.45;1.85;;;5.70;94.70;;;;;;5072289;28;20036;-80
2022/04/10 06:17:22;;;;;;;6.93;1.95;;;5.60;94.90;;;;;;5053314;28;20020;-80
2022/04/10 06:19:47;;;;;;;7.40;2.58;;;5.60;94.80;;;;;;5072035;28;20028;-81
2022/04/10 06:22:14;;;;;;;4.95;2.35;;;5.70;94.80;;;;;;5071225;28;20106;-80
2022/04/10 06:24:40;;;;;;;4.93;1.85;;;5.70;94.60;;;;;;5053467;28;20031;-81
2022/04/10 06:27:05;;;;;;;7.90;2.42;;;5.70;94.50;;;;;;5053116;28;20025;-81
2022/04/10 06:29:31;;;;;;;3.72;2.15;;;5.80;94.60;;;;;;5053325;28;20063;-82
2022/04/10 06:31:56;;;;;;;8.18;2.58;;;5.80;94.20;;;;;;5052729;28;20449;-81
2022/04/10 06:34:22;;;;;;;4.93;1.80;;;5.90;94.10;;;;;;5053370;28;20098;-81
2022/04/10 06:36:48;;;;;;;6.13;2.22;;;6.00;94.00;;;;;;5052872;28;20028;-81
2022/04/10 06:39:15;;;;;;;8.00;2.53;;;6.00;94.10;;;;;;5053259;28;20028;-81
2022/04/10 06:41:41;;;;;;;8.38;1.70;;;6.20;93.90;;;;;;5070658;28;20040;-80
2022/04/10 06:44:07;;;;;;;4.28;1.88;;;6.30;93.40;;;;;;5071436;28;20021;-80
2022/04/10 06:46:32;;;;;;;8.70;2.80;;;6.30;93.20;;;;;;5070387;28;20111;-81
2022/04/10 06:48:58;;;;;;;4.93;1.88;;;6.30;92.90;;;;;;5071012;28;20070;-80
2022/04/10 06:51:23;;;;;;;2.00;1.17;;;6.40;92.90;;;;;;5071032;28;20032;-81
2022/04/10 06:53:49;;;;;;;5.97;2.17;;;6.40;92.70;;;;;;5071482;28;20027;-81
2022/04/10 06:56:15;;;;;;;5.97;2.10;;;6.40;92.60;;;;;;5070326;28;20035;-82
2022/04/10 06:58:41;;;;;;;5.18;2.08;;;6.40;92.50;;;;;;5071269;28;20350;-80
2022/04/10 07:01:06;;;;;;;4.25;1.70;;;6.40;92.60;;;;;;5052784;28;20025;-80
2022/04/10 07:03:32;;;;;;;3.28;2.00;;;6.40;92.70;;;;;;5052975;28;20084;-80
2022/04/10 07:05:58;;;;;;;8.18;1.67;;;6.50;92.60;;;;;;5070102;28;20021;-81
2022/04/10 07:08:23;;;;;;;5.75;1.50;;;6.50;92.50;;;;;;5052603;28;20036;-80
2022/04/10 07:10:49;;;;;;;2.58;1.50;;;6.60;92.10;;;;;;5070389;28;20024;-80
2022/04/10 07:13:17;;;;;;;9.77;2.85;;;6.70;92.30;;;;;;5053149;28;20024;-80
2022/04/10 07:15:43;;;;;;;6.35;2.13;;;6.70;91.80;;;;;;5070470;28;20058;-81
2022/04/10 07:18:09;;;;;;;6.82;1.90;;;6.80;91.70;;;;;;5052562;28;20020;-80
2022/04/10 07:20:34;;;;;;;9.38;2.17;;;6.90;91.70;;;;;;5070565;28;20123;-80
2022/04/10 07:25:44;;;;;;;6.65;1.58;;;7.00;91.60;;;;;;5070010;28;20093;-82
2022/04/10 07:28:09;;;;;;;4.47;1.80;;;7.10;91.30;;;;;;5052678;28;20016;-82
2022/04/10 07:30:34;;;;;;;5.28;1.85;;;7.20;91.20;;;;;;5052494;28;20020;-80
2022/04/10 07:33:00;;;;;;;7.15;1.98;;;7.20;91.10;;;;;;5051886;28;20518;-82
2022/04/10 07:35:26;;;;;;;6.05;1.33;;;7.30;90.10;;;;;;5069617;28;20025;-81
2022/04/10 07:37:51;;;;;;;3.05;1.48;;;7.40;90.40;;;;;;5069924;28;20012;-82
2022/04/10 07:40:19;;;;;;;3.60;1.58;;;7.50;89.90;;;;;;5070067;28;20092;-81
2022/04/10 07:42:45;;;;;;;2.58;0.95;;;7.60;89.00;;;;;;5070162;28;20033;-80
2022/04/10 07:47:59;;;;;;;7.10;1.52;;;7.40;87.90;;;;;;5070530;28;20051;-81
2022/04/10 07:50:25;;;;;;;4.55;1.13;;;7.30;86.80;;;;;;5051682;28;20449;-83
2022/04/10 07:52:51;;;;;;;9.18;2.35;;;7.20;85.50;;;;;;5051542;28;20035;-81
2022/04/10 07:55:16;;;;;;;5.85;1.48;;;7.20;86.60;;;;;;5051147;28;20016;-81
2022/04/10 07:57:42;;;;;;;2.90;1.10;;;7.10;86.60;;;;;;5070107;28;20020;-81
2022/04/10 08:00:08;;;;;;;5.15;1.40;;;7.10;86.50;;;;;;5070127;28;20029;-80
2022/04/10 08:02:33;;;;;;;6.13;1.63;;;6.90;86.80;;;;;;5069311;28;20036;-82
2022/04/10 08:04:59;;;;;;;6.47;1.95;;;6.90;87.90;;;;;;5070145;28;20086;-81
2022/04/10 08:07:24;;;;;;;8.45;1.15;;;6.90;88.00;;;;;;5069115;28;20085;-81
2022/04/10 08:09:50;;;;;;;9.95;2.10;;;6.90;87.60;;;;;;5051822;28;20035;-81
2022/04/10 08:12:15;;;;;;;8.85;2.30;;;6.90;87.80;;;;;;5069361;28;20073;-80
2022/04/10 08:14:41;;;;;;;5.97;1.63;;;6.90;87.60;;;;;;5069675;28;20489;-82
2022/04/10 08:17:11;;;;;;;4.50;1.70;;;6.90;88.60;;;;;;5069206;28;20025;-80
2022/04/10 08:19:37;;;;;;;4.93;1.50;;;7.00;88.20;;;;;;5069798;28;20518;-81
2022/04/10 08:22:03;;;;;;;4.03;1.80;;;7.00;88.70;;;;;;5069116;28;20071;-80
2022/04/10 08:24:28;;;;;;;8.60;2.30;;;7.00;88.60;;;;;;5069638;28;20024;-80
2022/04/10 08:26:54;;;;;;;8.52;2.47;;;7.00;87.80;;;;;;5069214;28;20033;-81
2022/04/10 08:29:19;;;;;;;6.25;1.90;;;6.90;89.10;;;;;;5050975;28;20159;-81
2022/04/10 08:31:45;;;;;;;5.30;1.30;;;7.00;89.40;;;;;;5051379;28;20028;-81
2022/04/10 08:34:10;;;;;;;4.72;1.85;;;7.00;89.00;;;;;;5051433;28;20032;-80
2022/04/10 08:36:36;;;;;;;5.95;1.20;;;6.90;89.10;;;;;;5069101;28;20479;-80
2022/04/10 08:39:02;;;;;;;6.53;1.92;;;6.90;90.20;;;;;;5069512;28;20017;-81
2022/04/10 08:41:31;;;;;;;7.47;2.35;;;6.90;90.10;;;;;;5069049;28;20142;-80
2022/04/10 08:44:01;;;;;;;5.07;1.40;;;6.90;90.30;;;;;;5069376;28;20398;-81
2022/04/10 08:46:28;;;;;;;2.83;1.38;;;7.00;89.90;;;;;;5068275;28;20403;-81
2022/04/10 08:48:55;;;;;;;6.65;1.67;;;7.00;90.50;;;;;;5051504;28;20025;-80
2022/04/10 08:51:24;;;;;;;4.45;1.23;;;7.20;90.70;;;;;;5050901;28;20051;-82
2022/04/10 08:53:50;;;;;;;4.50;1.80;;;7.30;90.20;;;;;;5051673;28;20028;-81
2022/04/10 08:56:15;;;;;;;5.43;1.60;;;7.50;88.60;;;;;;5070804;28;20101;-81
2022/04/10 08:58:41;;;;;;;7.05;2.15;;;7.50;88.10;;;;;;5055370;28;20178;-83
2022/04/10 09:01:11;;;;;;;10.95;1.77;;;7.50;87.30;;;;;;5073275;28;20016;-83
2022/04/10 09:03:37;;;;;;;6.20;2.05;;;7.50;87.50;;;;;;5073869;28;20037;-81
2022/04/10 09:06:05;;;;;;;7.68;1.92;;;7.60;86.70;;;;;;5072335;28;20024;-83
2022/04/10 09:08:30;;;;;;;10.15;1.75;;;7.70;86.80;;;;;;5055034;28;20032;-83
2022/04/10 09:11:07;;;;;;;6.05;1.50;;;7.80;86.30;;;;;;5072628;28;20116;-84
2022/04/10 09:13:39;;;;;;;4.90;1.52;;;7.90;85.20;;;;;;5055222;28;20024;-83
2022/04/10 09:16:17;;;;;;;11.02;1.88;;;8.00;86.00;;;;;;5072447;28;20372;-81
2022/04/10 09:18:58;;;;;;;4.50;1.40;;;8.00;84.60;;;;;;5072959;28;20066;-82
2022/04/10 09:21:30;;;;;;;2.90;1.50;;;8.10;84.30;;;;;;5072462;28;20028;-81
2022/04/10 09:24:01;;;;;;;4.30;1.75;;;8.30;85.20;;;;;;5073146;28;20047;-82
2022/04/10 09:26:41;;;;;;;4.68;1.70;;;8.30;84.60;;;;;;5072476;28;20032;-80
2022/04/10 09:29:07;;;;;;;7.70;1.70;;;8.40;84.10;;;;;;5073107;28;20464;-80
2022/04/10 09:31:34;;;;;;;7.32;1.83;;;8.30;85.10;;;;;;5072489;28;20032;-83
2022/04/10 09:34:05;;;;;;;4.00;1.70;;;8.20;84.80;;;;;;5054704;28;20028;-83
2022/04/10 09:36:33;;;;;;;8.25;2.05;;;8.20;85.80;;;;;;5071585;28;20017;-82
2022/04/10 09:38:59;;;;;;;8.85;1.50;;;8.20;86.20;;;;;;5072253;28;20086;-83
2022/04/10 09:41:25;;;;;;;5.40;1.80;;;8.20;84.90;;;;;;5053582;28;20028;-80
2022/04/10 09:43:51;;;;;;;8.38;2.33;;;8.30;85.30;;;;;;5072654;28;20073;-83
2022/04/10 09:46:17;;;;;;;4.43;1.80;;;8.50;85.30;;;;;;5081105;28;20059;-82
2022/04/10 09:48:43;;;;;;;3.05;1.50;;;8.80;83.30;;;;;;5061130;28;20024;-83
2022/04/10 09:51:10;;;;;;;6.47;2.13;;;9.10;83.00;;;;;;5054137;28;20024;-80
2022/04/10 09:53:36;;;;;;;3.95;1.40;;;9.00;81.00;;;;;;5072467;28;20051;-80
2022/04/10 09:56:04;;;;;;;5.53;2.03;;;9.00;81.30;;;;;;5071538;28;20017;-81
2022/04/10 09:58:31;;;;;;;5.00;2.58;;;8.90;81.20;;;;;;5053573;28;20563;-81
2022/04/10 10:00:58;;;;;;;7.60;2.10;;;9.00;80.80;;;;;;5071692;28;20399;-81
2022/04/10 10:03:26;;;;;;;3.65;1.27;;;9.00;81.50;;;;;;5053923;28;20129;-80
2022/04/10 10:05:53;;;;;;;5.53;1.95;;;9.00;80.10;;;;;;5071477;28;20090;-82
2022/04/10 10:08:19;;;;;;;6.90;1.42;;;9.00;79.30;;;;;;5070868;28;20016;-82
2022/04/10 10:10:45;;;;;;;3.80;1.15;;;9.00;78.50;;;;;;5071397;28;20036;-80
2022/04/10 10:13:14;;;;;;;4.07;1.20;;;8.90;80.00;;;;;;5071729;28;20033;-81
2022/04/10 10:15:41;;;;;;;4.55;1.73;;;8.80;79.80;;;;;;5071097;28;20029;-82
2022/04/10 10:18:08;;;;;;;6.65;1.30;;;8.70;81.00;;;;;;5071712;28;20062;-82
2022/04/10 10:20:34;;;;;;;5.30;1.60;;;8.60;82.00;;;;;;5053336;28;20027;-82
2022/04/10 10:23:01;;;;;;;4.88;1.30;;;8.50;82.20;;;;;;5071384;28;20068;-80
2022/04/10 10:25:29;;;;;;;4.82;1.25;;;8.40;82.40;;;;;;5070903;28;20017;-82
2022/04/10 10:28:22;;;;;;;5.40;1.65;;;8.40;84.60;;;;;;5071570;28;20389;-82
2022/04/10 10:31:02;;;;;;;6.88;1.88;;;8.60;82.50;;;;;;5071241;28;20020;-82
2022/04/10 10:33:30;;;;;;;3.47;1.70;;;8.80;83.20;;;;;;5070271;28;20040;-82
2022/04/10 10:35:58;;;;;;;4.57;1.52;;;8.90;83.00;;;;;;5067974;28;20110;-81
2022/04/10 10:38:25;;;;;;;3.38;1.77;;;9.10;82.60;;;;;;5047024;28;20028;-81
2022/04/10 10:40:53;;;;;;;5.25;1.98;;;9.30;82.10;;;;;;5047876;28;20047;-81
2022/04/10 10:43:23;;;;;;;6.53;1.63;;;9.50;80.10;;;;;;5067786;28;20119;-81
2022/04/10 10:45:50;;;;;;;67.82;34.80;;;9.60;78.20;;;;;;5068516;28;20040;-84
2022/04/10 10:48:31;;;;;;;33.95;15.88;;;9.70;76.80;;;;;;5050696;28;20024;-82
2022/04/10 10:51:09;;;;;;;32.33;15.60;;;9.80;75.10;;;;;;5068751;28;20028;-82
2022/04/10 10:53:46;;;;;;;14.73;6.70;;;9.90;75.20;;;;;;5068772;28;20036;-82
2022/04/10 10:56:14;;;;;;;5.45;1.50;;;9.80;74.10;;;;;;5050203;28;20032;-80
2022/04/10 10:58:40;;;;;;;3.28;1.40;;;9.80;73.50;;;;;;5050945;28;20063;-80
2022/04/10 11:01:07;;;;;;;4.00;1.48;;;9.70;74.70;;;;;;5068183;28;20032;-81
2022/04/10 11:04:03;;;;;;;5.20;1.20;;;9.60;76.00;;;;;;5056015;28;20037;-81
2022/04/10 11:06:43;;;;;;;2.92;1.60;;;9.40;78.50;;;;;;5071083;28;20047;-81
2022/04/10 11:09:28;;;;;;;4.97;2.28;;;9.30;78.70;;;;;;5068507;28;20423;-81
2022/04/10 11:11:57;;;;;;;3.33;1.63;;;9.10;79.90;;;;;;5063914;28;20115;-81
2022/04/10 11:14:38;;;;;;;2.10;1.20;;;9.10;80.60;;;;;;5074772;28;20079;-81
2022/04/10 11:17:29;;;;;;;5.70;1.75;;;9.20;80.60;;;;;;5062302;28;20025;-81
2022/04/10 11:20:01;;;;;;;4.07;1.58;;;9.30;78.70;;;;;;5067905;28;20031;-81
2022/04/10 11:22:59;;;;;;;5.03;1.55;;;9.50;78.60;;;;;;5067892;28;20040;-82
2022/04/10 11:25:27;;;;;;;5.72;1.42;;;9.80;77.90;;;;;;5068243;28;20044;-81
2022/04/10 11:28:01;;;;;;;5.20;1.80;;;10.10;76.80;;;;;;5047805;28;20170;-81
2022/04/10 11:30:38;;;;;;;2.90;1.45;;;10.30;74.70;;;;;;5067771;28;20112;-78
2022/04/10 11:33:06;;;;;;;4.07;1.77;;;10.20;76.80;;;;;;5066576;28;20040;-80
2022/04/10 11:35:36;;;;;;;9.07;4.85;;;10.10;75.40;;;;;;5066834;28;20024;-82
2022/04/10 11:38:05;;;;;;;4.20;1.60;;;10.10;75.40;;;;;;5068714;28;20108;-82
2022/04/10 11:40:33;;;;;;;3.28;1.90;;;10.10;75.60;;;;;;5067441;28;20138;-80
2022/04/10 11:43:02;;;;;;;1.38;1.27;;;10.20;76.30;;;;;;5066987;28;20028;-80
2022/04/10 11:45:29;;;;;;;2.13;1.10;;;10.40;76.70;;;;;;5066377;28;20469;-81
2022/04/10 11:47:56;;;;;;;3.08;1.08;;;10.50;73.40;;;;;;5050260;28;20719;-82
2022/04/10 11:50:24;;;;;;;4.45;1.13;;;10.40;72.00;;;;;;5048974;28;20028;-82
2022/04/10 11:53:00;;;;;;;3.53;1.38;;;10.20;71.30;;;;;;5066212;28;20130;-80
2022/04/10 11:55:40;;;;;;;3.42;1.08;;;10.20;72.60;;;;;;5066684;28;20112;-82
2022/04/10 11:58:15;;;;;;;4.47;2.47;;;10.20;73.40;;;;;;5049920;28;20037;-83
2022/04/10 12:01:00;;;;;;;7.18;1.38;;;10.10;71.50;;;;;;5052180;28;20028;-81
2022/04/10 12:03:33;;;;;;;8.65;1.30;;;10.10;73.20;;;;;;5071206;28;20086;-80
2022/04/10 12:05:59;;;;;;;5.97;0.95;;;10.40;72.70;;;;;;5068697;28;20029;-83
2022/04/10 12:08:25;;;;;;;4.40;1.00;;;10.60;72.10;;;;;;5067014;28;20094;-82
2022/04/10 12:10:54;;;;;;;2.47;1.13;;;10.90;71.10;;;;;;5072093;28;20029;-82
2022/04/10 12:13:20;;;;;;;3.85;0.80;;;11.00;70.70;;;;;;5057561;28;20032;-83
2022/04/10 12:15:48;;;;;;;2.10;1.02;;;10.90;70.30;;;;;;5046594;28;20858;-83
2022/04/10 12:18:14;;;;;;;3.45;1.08;;;10.90;70.90;;;;;;5069095;28;20024;-83
2022/04/10 12:20:42;;;;;;;4.47;0.90;;;10.90;70.30;;;;;;5069723;28;20035;-85
2022/04/10 12:23:19;;;;;;;4.38;1.13;;;10.90;69.50;;;;;;5058713;28;20593;-83
2022/04/10 12:25:45;;;;;;;5.47;1.00;;;10.90;70.30;;;;;;5048157;28;20444;-84
2022/04/10 12:28:11;;;;;;;3.58;0.90;;;10.80;70.30;;;;;;5067827;28;20025;-82
2022/04/10 12:30:38;;;;;;;3.90;0.88;;;10.80;70.20;;;;;;5052024;28;20461;-83
2022/04/10 12:33:05;;;;;;;2.45;0.90;;;10.70;71.60;;;;;;5072225;28;20200;-83
2022/04/10 12:35:37;;;;;;;3.28;0.98;;;10.70;70.80;;;;;;5069925;28;20349;-82
2022/04/10 12:38:03;;;;;;;4.15;2.65;;;10.60;71.10;;;;;;5071418;28;20047;-82
2022/04/10 12:40:29;;;;;;;3.20;1.13;;;10.40;73.20;;;;;;5053397;28;20551;-82
2022/04/10 12:43:02;;;;;;;2.15;0.77;;;10.10;77.40;;;;;;5071045;28;20447;-84
2022/04/10 12:45:32;;;;;;;2.35;0.80;;;9.50;80.70;;;;;;5070071;28;20058;-82
2022/04/10 12:47:58;;;;;;;2.80;1.25;;;9.00;83.30;;;;;;5070606;28;20469;-82
2022/04/10 12:50:26;;;;;;;4.28;1.92;;;8.60;85.10;;;;;;5070689;28;20033;-83
2022/04/10 12:52:57;;;;;;;2.38;0.63;;;8.40;88.50;;;;;;5051122;28;20135;-82
2022/04/10 12:55:25;;;;;;;4.47;1.57;;;8.40;87.10;;;;;;5067296;28;20081;-82
2022/04/10 12:58:05;;;;;;;3.25;0.98;;;8.50;86.40;;;;;;5070040;28;20293;-82
2022/04/10 13:00:35;;;;;;;0.80;0.60;;;8.50;83.60;;;;;;5048460;28;20024;-81